createdAt,value
2019-05-15T00:02:25.083Z,99091.79
2019-05-15T00:04:58.378Z,99092.80
2019-05-15T00:07:30.333Z,99087.72
2019-05-15T00:10:01.747Z,99083.23
2019-05-15T00:12:33.237Z,99077.42
2019-05-15T00:15:04.714Z,99080.50
2019-05-15T00:17:36.250Z,99076.52
2019-05-15T00:20:09.845Z,99073.78
2019-05-15T00:22:40.776Z,99071.33
2019-05-15T00:25:12.233Z,99070.59
2019-05-15T00:27:43.574Z,99067.43
2019-05-15T00:30:15.095Z,99065.70
2019-05-15T00:32:48.526Z,99066.25
2019-05-15T00:35:19.406Z,99060.41
2019-05-15T00:37:50.781Z,99062.04
2019-05-15T00:40:22.102Z,99059.08
2019-05-15T00:42:53.476Z,99055.41
2019-05-15T00:45:24.855Z,99049.67
2019-05-15T00:47:57.915Z,99053.57
2019-05-15T00:50:29.349Z,99054.31
2019-05-15T00:53:02.482Z,99055.09
2019-05-15T00:55:33.776Z,99048.19
2019-05-15T00:58:05.178Z,99044.20
2019-05-15T01:00:42.635Z,99041.83
2019-05-15T01:03:14.188Z,99040.22
2019-05-15T01:05:47.853Z,99039.91
2019-05-15T01:08:21.480Z,99043.61
2019-05-15T01:10:52.867Z,99044.94
2019-05-15T01:13:24.249Z,99041.16
2019-05-15T01:15:55.591Z,99036.36
2019-05-15T01:18:29.227Z,99026.88
2019-05-15T01:21:00.742Z,99022.50
2019-05-15T01:23:32.116Z,99016.17
2019-05-15T01:26:03.621Z,99023.52
2019-05-15T01:28:34.999Z,99017.94
2019-05-15T01:31:08.492Z,99012.91
2019-05-15T01:33:39.470Z,99012.70
2019-05-15T01:36:10.825Z,99009.83
2019-05-15T01:38:42.233Z,99006.58
2019-05-15T01:41:13.578Z,99003.11
2019-05-15T01:43:44.991Z,98996.71
2019-05-15T01:46:18.897Z,99002.30
2019-05-15T01:48:49.592Z,99003.93
2019-05-15T01:51:20.919Z,99000.70
2019-05-15T01:53:52.258Z,99004.52
2019-05-15T01:56:23.718Z,99000.53
2019-05-15T01:58:55.023Z,98997.80
2019-05-15T02:01:28.366Z,99003.03
2019-05-15T02:04:05.664Z,99001.39
2019-05-15T02:06:39.104Z,99006.70
2019-05-15T02:09:10.159Z,99003.27
2019-05-15T02:11:41.550Z,98997.95
2019-05-15T02:14:12.937Z,98994.48
2019-05-15T02:16:44.209Z,98995.30
2019-05-15T02:19:15.598Z,98992.65
2019-05-15T02:21:48.608Z,98992.42
2019-05-15T02:24:20.264Z,98984.45
2019-05-15T02:26:51.769Z,98976.73
2019-05-15T02:29:25.131Z,98976.50
2019-05-15T02:31:59.232Z,98984.16
2019-05-15T02:34:30.304Z,98983.36
2019-05-15T02:37:02.160Z,98976.50
2019-05-15T02:39:33.691Z,98979.16
2019-05-15T02:42:05.183Z,98981.69
2019-05-15T02:44:39.655Z,98979.03
2019-05-15T02:47:09.668Z,98983.02
2019-05-15T02:49:41.058Z,98982.70
2019-05-15T02:52:12.404Z,98984.03
2019-05-15T02:54:43.925Z,98980.05
2019-05-15T02:57:19.030Z,98976.58
2019-05-15T02:59:49.886Z,98979.54
2019-05-15T03:02:22.382Z,98969.95
2019-05-15T03:04:53.879Z,98970.53
2019-05-15T03:07:25.343Z,98969.75
2019-05-15T03:09:59.883Z,98962.88
2019-05-15T03:12:31.182Z,98960.03
2019-05-15T03:15:02.599Z,98960.23
2019-05-15T03:17:33.982Z,98951.76
2019-05-15T03:20:05.422Z,98957.37
2019-05-15T03:22:39.660Z,98955.73
2019-05-15T03:25:11.253Z,98954.84
2019-05-15T03:27:42.775Z,98958.82
2019-05-15T03:30:21.164Z,98953.52
2019-05-15T03:32:55.815Z,98958.52
2019-05-15T03:35:23.118Z,98963.82
2019-05-15T03:37:54.683Z,98951.88
2019-05-15T03:40:26.083Z,98954.34
2019-05-15T03:42:59.353Z,98955.16
2019-05-15T03:45:31.058Z,98959.92
2019-05-15T03:48:02.484Z,98959.13
2019-05-15T03:50:33.800Z,98957.06
2019-05-15T03:53:05.115Z,98955.43
2019-05-15T03:55:36.499Z,98954.92
2019-05-15T03:58:09.857Z,98953.39
2019-05-15T04:00:40.956Z,98957.66
2019-05-15T04:03:12.393Z,98956.76
2019-05-15T04:05:43.694Z,98858.87
2019-05-15T04:08:15.114Z,98954.02
2019-05-15T04:10:48.755Z,98947.47
2019-05-15T04:13:20.390Z,98951.45
2019-05-15T04:15:51.789Z,98950.13
2019-05-15T04:18:23.207Z,98950.94
2019-05-15T04:20:54.596Z,98955.43
2019-05-15T04:23:26.013Z,98949.92
2019-05-15T04:25:59.060Z,98948.09
2019-05-15T04:28:32.299Z,98952.58
2019-05-15T04:31:03.652Z,98948.09
2019-05-15T04:33:35.084Z,98952.58
2019-05-15T04:36:09.491Z,98951.33
2019-05-15T04:38:39.736Z,98948.67
2019-05-15T04:41:11.345Z,98945.86
2019-05-15T04:43:45.187Z,98946.45
2019-05-15T04:46:19.332Z,98947.47
2019-05-15T04:48:50.139Z,98945.33
2019-05-15T04:51:22.826Z,98945.56
2019-05-15T04:53:54.346Z,98945.94
2019-05-15T04:56:29.125Z,98947.19
2019-05-15T04:59:01.366Z,98948.80
2019-05-15T05:01:32.796Z,98948.67
2019-05-15T05:04:04.177Z,98946.30
2019-05-15T05:06:38.469Z,98945.59
2019-05-15T05:09:09.464Z,98948.52
2019-05-15T05:11:41.520Z,98951.71
2019-05-15T05:14:12.841Z,98949.13
2019-05-15T05:16:44.221Z,98945.94
2019-05-15T05:19:15.914Z,98950.73
2019-05-15T05:21:47.948Z,98945.23
2019-05-15T05:24:19.375Z,98945.16
2019-05-15T05:26:50.649Z,98945.16
2019-05-15T05:29:22.027Z,98948.09
2019-05-15T05:31:53.402Z,98945.94
2019-05-15T05:34:28.320Z,98950.23
2019-05-15T05:36:59.894Z,98948.70
2019-05-15T05:39:31.418Z,98947.65
2019-05-15T05:42:03.313Z,98948.23
2019-05-15T05:44:34.679Z,98945.97
2019-05-15T05:47:09.255Z,98949.44
2019-05-15T05:49:45.388Z,98942.95
2019-05-15T05:52:52.924Z,98950.48
2019-05-15T05:56:00.606Z,98945.17
2019-05-15T05:59:09.359Z,98950.86
2019-05-15T06:01:44.136Z,98960.00
2019-05-15T06:04:15.837Z,98958.16
2019-05-15T06:06:50.077Z,98956.83
2019-05-15T06:09:20.223Z,98952.77
2019-05-15T06:11:51.594Z,98958.61
2019-05-15T06:14:22.864Z,98953.73
2019-05-15T06:16:54.279Z,98955.45
2019-05-15T06:19:27.654Z,98950.28
2019-05-15T06:22:01.048Z,98954.41
2019-05-15T06:24:31.823Z,98954.34
2019-05-15T06:27:03.144Z,98953.03
2019-05-15T06:29:34.606Z,98956.84
2019-05-15T06:32:07.995Z,98947.92
2019-05-15T06:34:39.579Z,98947.55
2019-05-15T06:37:12.510Z,98945.78
2019-05-15T06:39:43.941Z,98949.53
2019-05-15T06:42:15.237Z,98943.41
2019-05-15T06:44:48.377Z,98947.25
2019-05-15T06:47:19.755Z,98941.94
2019-05-15T06:49:54.157Z,98939.85
2019-05-15T06:52:25.556Z,98939.41
2019-05-15T06:54:59.259Z,98936.17
2019-05-15T06:57:32.305Z,98938.08
2019-05-15T07:00:04.842Z,98943.83
2019-05-15T07:02:38.256Z,98938.02
2019-05-15T07:05:09.644Z,98928.14
2019-05-15T07:07:41.000Z,98929.47
2019-05-15T07:10:12.496Z,98929.33
2019-05-15T07:12:43.980Z,98920.30
2019-05-15T07:15:18.929Z,98928.94
2019-05-15T07:17:50.283Z,98922.87
2019-05-15T07:20:22.452Z,98931.66
2019-05-15T07:22:54.203Z,98934.02
2019-05-15T07:25:25.646Z,98929.00
2019-05-15T07:27:58.055Z,98929.25
2019-05-15T07:30:29.857Z,98928.44
2019-05-15T07:33:01.173Z,98920.13
2019-05-15T07:35:32.662Z,98916.88
2019-05-15T07:38:03.996Z,98920.73
2019-05-15T07:40:38.318Z,98927.30
2019-05-15T07:43:09.488Z,98925.26
2019-05-15T07:45:44.415Z,98925.83
2019-05-15T07:48:15.664Z,98922.31
2019-05-15T07:50:49.618Z,98925.22
2019-05-15T07:53:22.630Z,98926.77
2019-05-15T07:55:54.023Z,98930.03
2019-05-15T07:58:28.391Z,98928.91
2019-05-15T08:01:00.661Z,98927.48
2019-05-15T08:03:32.385Z,98920.72
2019-05-15T08:06:03.738Z,98920.47
2019-05-15T08:08:39.354Z,98915.39
2019-05-15T08:11:20.251Z,98920.02
2019-05-15T08:13:45.148Z,98915.91
2019-05-15T08:16:18.146Z,98918.11
2019-05-15T08:18:49.647Z,98912.02
2019-05-15T08:21:22.662Z,98921.30
2019-05-15T08:23:53.900Z,98917.00
2019-05-15T08:26:25.329Z,98913.58
2019-05-15T08:28:57.965Z,98911.05
2019-05-15T08:31:29.809Z,98913.37
2019-05-15T08:34:12.591Z,98912.03
2019-05-15T08:36:34.246Z,98912.61
2019-05-15T08:39:08.508Z,98913.31
2019-05-15T08:41:40.007Z,98916.90
2019-05-15T08:44:29.137Z,98918.58
2019-05-15T08:46:59.876Z,98921.30
2019-05-15T08:49:31.194Z,98926.16
2019-05-15T08:52:02.570Z,98920.83
2019-05-15T08:54:34.135Z,98924.11
2019-05-15T08:57:20.402Z,98923.95
2019-05-15T08:59:51.342Z,98926.51
2019-05-15T09:02:22.719Z,98929.33
2019-05-15T09:04:54.024Z,98929.33
2019-05-15T09:07:25.430Z,98930.55
2019-05-15T09:09:59.899Z,98929.67
2019-05-15T09:12:31.138Z,98930.31
2019-05-15T09:15:02.524Z,98927.36
2019-05-15T09:17:35.499Z,98924.12
2019-05-15T09:20:08.296Z,98922.79
2019-05-15T09:22:54.599Z,98924.58
2019-05-15T09:25:28.640Z,98926.20
2019-05-15T09:27:58.984Z,98919.61
2019-05-15T09:30:30.445Z,98925.60
2019-05-15T09:33:03.606Z,98926.42
2019-05-15T09:35:35.012Z,98930.05
2019-05-15T09:38:08.597Z,98930.53
2019-05-15T09:40:46.140Z,98930.59
2019-05-15T09:43:14.008Z,98923.40
2019-05-15T09:45:49.289Z,98924.67
2019-05-15T09:48:22.054Z,98927.63
2019-05-15T09:50:53.316Z,98918.86
2019-05-15T09:53:25.117Z,98924.91
2019-05-15T09:55:56.591Z,98920.05
2019-05-15T09:58:30.013Z,98924.79
2019-05-15T10:01:01.745Z,98920.95
2019-05-15T10:03:33.039Z,98907.20
2019-05-15T10:06:04.691Z,98910.22
2019-05-15T10:08:36.241Z,98910.30
2019-05-15T10:11:10.025Z,98908.55
2019-05-15T10:13:41.466Z,98912.72
2019-05-15T10:16:12.839Z,98923.18
2019-05-15T10:18:44.145Z,98925.14
2019-05-15T10:21:18.390Z,98933.12
2019-05-15T10:23:49.472Z,98927.34
2019-05-15T10:26:21.076Z,98929.58
2019-05-15T10:28:52.355Z,98929.44
2019-05-15T10:31:23.780Z,98933.20
2019-05-15T10:33:55.220Z,98931.48
2019-05-15T10:36:28.013Z,98926.02
2019-05-15T10:38:59.583Z,98928.10
2019-05-15T10:41:31.004Z,98926.17
2019-05-15T10:44:02.473Z,98921.30
2019-05-15T10:46:33.982Z,98927.50
2019-05-15T10:49:08.426Z,98924.27
2019-05-15T10:51:39.682Z,98920.84
2019-05-15T10:54:11.263Z,98918.19
2019-05-15T10:56:42.743Z,98918.19
2019-05-15T10:59:14.546Z,98918.19
2019-05-15T11:01:48.748Z,98920.21
2019-05-15T11:04:21.464Z,98912.23
2019-05-15T11:06:52.819Z,98910.73
2019-05-15T11:09:24.185Z,98905.50
2019-05-15T11:11:58.166Z,98900.58
2019-05-15T11:14:28.786Z,98899.85
2019-05-15T11:17:01.739Z,98902.06
2019-05-15T11:19:36.246Z,98896.19
2019-05-15T11:22:08.915Z,98893.38
2019-05-15T11:24:41.273Z,98900.66
2019-05-15T11:27:12.597Z,98898.88
2019-05-15T11:29:43.955Z,98899.45
2019-05-15T11:32:15.402Z,98896.52
2019-05-15T11:34:49.161Z,98900.62
2019-05-15T11:37:19.639Z,98894.63
2019-05-15T11:39:51.046Z,98891.96
2019-05-15T11:42:22.307Z,98892.98
2019-05-15T11:44:53.695Z,98890.84
2019-05-15T11:47:25.206Z,98891.59
2019-05-15T11:49:58.563Z,98897.43
2019-05-15T11:52:29.656Z,98901.12
2019-05-15T11:55:01.281Z,98904.66
2019-05-15T11:57:42.564Z,98906.20
2019-05-15T12:00:15.092Z,98900.27
2019-05-15T12:02:41.617Z,98906.59
2019-05-15T12:05:14.426Z,98905.95
2019-05-15T12:07:47.863Z,98907.52
2019-05-15T12:10:20.694Z,98897.55
2019-05-15T12:12:51.983Z,98903.17
2019-05-15T12:15:23.241Z,98900.09
2019-05-15T12:17:54.502Z,98902.99
2019-05-15T12:20:28.373Z,98905.98
2019-05-15T12:22:59.516Z,98901.42
2019-05-15T12:25:31.970Z,98906.98
2019-05-15T12:28:03.500Z,98907.77
2019-05-15T12:30:35.191Z,98911.03
2019-05-15T12:33:09.270Z,98914.72
2019-05-15T12:35:41.369Z,98910.48
2019-05-15T12:38:12.626Z,98908.38
2019-05-15T13:01:17.500Z,98902.96
2019-05-15T13:03:45.569Z,98906.65
2019-05-15T13:06:19.286Z,98902.84
2019-05-15T13:08:50.159Z,98894.31
2019-05-15T13:11:21.510Z,98894.74
2019-05-15T13:13:53.594Z,98895.86
2019-05-15T13:16:24.996Z,98887.73
2019-05-15T13:18:58.638Z,98884.80
2019-05-15T13:21:31.189Z,98879.91
2019-05-15T13:24:02.594Z,98879.75
2019-05-15T13:26:33.905Z,98886.01
2019-05-15T13:29:05.356Z,98881.41
2019-05-15T13:31:38.335Z,98877.88
2019-05-15T13:34:09.855Z,98877.28
2019-05-15T13:36:42.850Z,98880.53
2019-05-15T13:39:14.252Z,98879.69
2019-05-15T13:41:48.183Z,98875.83
2019-05-15T13:44:18.934Z,98875.52
2019-05-15T13:46:50.164Z,98873.86
2019-05-15T13:49:21.548Z,98871.66
2019-05-15T13:51:52.817Z,98872.27
2019-05-15T13:54:24.192Z,98869.12
2019-05-15T13:56:55.552Z,98864.22
2019-05-15T13:59:28.808Z,98866.13
2019-05-15T14:02:00.321Z,98864.49
2019-05-15T14:04:31.801Z,98867.13
2019-05-15T14:07:03.254Z,98863.33
2019-05-15T14:09:34.795Z,98862.70
2019-05-15T14:12:11.676Z,98859.80
2019-05-15T14:14:39.374Z,98855.39
2019-05-15T14:17:10.779Z,98853.95
2019-05-15T14:19:43.790Z,98861.52
2019-05-15T14:22:15.681Z,98860.19
2019-05-15T14:24:48.940Z,98852.52
2019-05-15T14:27:20.813Z,98858.86
2019-05-15T14:29:53.817Z,98863.88
2019-05-15T14:32:35.436Z,98866.84
2019-05-15T14:34:58.564Z,98862.73
2019-05-15T14:37:29.984Z,98858.44
2019-05-15T14:40:01.294Z,98867.75
2019-05-15T14:42:32.637Z,98861.56
2019-05-15T14:45:05.157Z,98859.08
2019-05-15T14:47:38.841Z,98869.42
2019-05-15T14:50:10.634Z,98864.86
2019-05-15T14:52:42.065Z,98871.95
2019-05-15T14:55:13.590Z,98865.77
2019-05-15T14:57:44.938Z,98862.23
2019-05-15T15:00:19.851Z,98863.86
2019-05-15T15:02:50.467Z,98860.89
2019-05-15T15:05:23.267Z,98863.05
2019-05-15T15:07:54.748Z,98864.88
2019-05-15T15:10:43.614Z,98871.08
2019-05-15T15:13:31.330Z,98868.12
2019-05-15T15:16:08.496Z,98860.38
2019-05-15T15:18:48.277Z,98861.59
2019-05-15T15:21:32.962Z,98857.55
2019-05-15T15:24:08.894Z,98860.84
2019-05-15T15:26:46.202Z,98863.73
2019-05-15T15:29:32.603Z,98860.98
2019-05-15T15:32:18.543Z,98860.89
2019-05-15T15:35:03.244Z,98861.92
2019-05-15T15:37:44.730Z,98856.42
2019-05-15T15:40:18.754Z,98861.47
2019-05-15T15:42:49.402Z,98858.81
2019-05-15T15:45:28.368Z,98867.51
2019-05-15T15:48:13.724Z,98862.64
2019-05-15T15:50:58.957Z,98868.47
2019-05-15T15:53:40.928Z,98871.44
2019-05-15T15:56:12.409Z,98873.97
2019-05-15T15:58:48.914Z,98869.91
2019-05-15T16:01:23.917Z,98874.72
2019-05-15T16:03:58.791Z,98866.20
2019-05-15T16:06:32.207Z,98870.58
2019-05-15T16:09:05.308Z,98870.67
2019-05-15T16:11:49.960Z,98867.97
2019-05-15T16:14:22.794Z,98873.73
2019-05-15T16:16:57.094Z,98877.80
2019-05-15T16:19:28.529Z,98881.13
2019-05-15T16:22:04.914Z,98877.66
2019-05-15T16:24:41.287Z,98879.80
2019-05-15T16:27:15.060Z,98877.73
2019-05-15T16:29:46.695Z,98886.63
2019-05-15T16:32:22.298Z,98881.14
2019-05-15T16:34:59.990Z,98879.37
2019-05-15T16:37:38.741Z,98881.08
2019-05-15T16:40:13.393Z,98884.41
2019-05-15T16:42:44.852Z,98882.95
2019-05-15T16:45:19.059Z,98882.06
2019-05-15T16:47:50.801Z,98885.16
2019-05-15T16:50:22.080Z,98884.71
2019-05-15T16:52:53.433Z,98887.23
2019-05-15T16:55:24.852Z,98888.38
2019-05-15T16:57:58.608Z,98885.89
2019-05-15T17:00:30.090Z,98888.03
2019-05-15T17:03:13.745Z,98887.08
2019-05-15T17:05:35.183Z,98890.55
2019-05-15T17:08:09.934Z,98886.47
2019-05-15T17:10:42.837Z,98884.94
2019-05-15T17:13:14.431Z,98888.09
2019-05-15T17:15:47.846Z,98889.42
2019-05-15T17:18:19.210Z,98884.77
2019-05-15T17:20:52.066Z,98888.09
2019-05-15T17:23:23.643Z,98896.80
2019-05-15T17:25:57.925Z,98888.33
2019-05-15T17:28:29.175Z,98887.79
2019-05-15T17:31:02.132Z,98889.86
2019-05-15T17:33:33.491Z,98889.42
2019-05-15T17:36:04.866Z,98894.42
2019-05-15T17:38:48.926Z,98892.08
2019-05-15T17:41:31.945Z,98889.86
2019-05-15T17:44:06.460Z,98894.42
2019-05-15T17:46:54.619Z,98892.52
2019-05-15T17:49:38.593Z,98897.55
2019-05-15T17:52:29.296Z,98895.03
2019-05-15T17:55:12.550Z,98901.52
2019-05-15T17:57:57.114Z,98891.17
2019-05-15T18:00:30.165Z,98893.55
2019-05-15T18:03:04.365Z,98893.83
2019-05-15T18:05:39.196Z,98899.14
2019-05-15T18:08:10.868Z,98891.92
2019-05-15T18:10:42.162Z,98889.86
2019-05-15T18:13:13.706Z,98886.95
2019-05-15T18:15:45.061Z,98891.55
2019-05-15T18:18:18.670Z,98886.30
2019-05-15T18:20:50.235Z,98892.62
2019-05-15T18:23:23.906Z,98894.25
2019-05-15T18:25:58.378Z,98885.40
2019-05-15T18:28:33.099Z,98892.77
2019-05-15T18:31:09.286Z,98897.50
2019-05-15T18:33:53.110Z,98901.17
2019-05-15T18:36:14.064Z,98896.45
2019-05-15T18:38:48.877Z,98900.86
2019-05-15T18:41:23.185Z,98900.12
2019-05-15T18:43:57.764Z,98902.61
2019-05-15T18:46:29.040Z,98904.91
2019-05-15T18:49:01.965Z,98897.16
2019-05-15T18:51:33.287Z,98899.06
2019-05-15T18:54:04.572Z,98891.97
2019-05-15T18:56:38.388Z,98895.64
2019-05-15T18:59:08.912Z,98896.81
2019-05-15T19:01:40.173Z,98900.79
2019-05-15T19:04:11.482Z,98898.95
2019-05-15T19:06:42.856Z,98905.70
2019-05-15T19:09:14.242Z,98897.67
2019-05-15T19:11:45.518Z,98905.55
2019-05-15T19:14:19.005Z,98909.01
2019-05-15T19:16:49.843Z,98911.35
2019-05-15T19:19:21.127Z,98909.75
2019-05-15T19:21:52.383Z,98910.17
2019-05-15T19:24:25.419Z,98910.17
2019-05-15T19:26:58.644Z,98909.36
2019-05-15T19:29:29.767Z,98911.35
2019-05-15T19:32:01.092Z,98912.67
2019-05-15T19:34:32.383Z,98903.63
2019-05-15T19:37:03.643Z,98901.80
2019-05-15T19:39:34.902Z,98895.59
2019-05-15T19:42:06.161Z,98891.97
2019-05-15T19:44:37.869Z,98893.48
2019-05-15T19:47:09.235Z,98889.23
2019-05-15T19:49:40.510Z,98887.59
2019-05-15T19:52:11.828Z,98893.41
2019-05-15T19:54:44.801Z,98880.89
2019-05-15T19:57:28.041Z,98886.27
2019-05-15T20:00:35.970Z,98886.27
2019-05-15T20:03:08.388Z,98882.77
2019-05-15T20:06:18.677Z,98880.97
2019-05-15T20:09:07.632Z,98880.37
2019-05-15T20:11:38.731Z,98884.16
2019-05-15T20:14:10.014Z,98880.89
2019-05-15T20:16:41.382Z,98886.50
2019-05-15T20:19:12.715Z,98886.50
2019-05-15T20:21:44.406Z,98880.47
2019-05-15T20:24:18.069Z,98882.95
2019-05-15T20:26:48.798Z,98876.49
2019-05-15T20:29:20.133Z,98880.07
2019-05-15T20:31:51.441Z,98872.43
2019-05-15T20:34:24.539Z,98872.20
2019-05-15T20:36:58.631Z,98875.47
2019-05-15T20:39:29.068Z,98868.58
2019-05-15T20:42:00.482Z,98866.55
2019-05-15T20:44:31.893Z,98869.74
2019-05-15T20:47:03.318Z,98858.91
2019-05-15T20:49:35.169Z,98857.51
2019-05-15T20:52:06.640Z,98860.35
2019-05-15T20:54:38.568Z,98857.00
2019-05-15T20:57:10.218Z,98855.75
2019-05-15T20:59:41.488Z,98861.33
2019-05-15T21:02:14.891Z,98855.98
2019-05-15T21:04:46.183Z,98857.11
2019-05-15T21:07:27.600Z,98847.95
2019-05-15T21:09:50.480Z,98843.47
2019-05-15T21:12:21.960Z,98846.86
2019-05-15T21:14:53.361Z,98846.55
2019-05-15T21:17:24.827Z,98840.66
2019-05-15T21:19:58.309Z,98847.45
2019-05-15T21:22:29.390Z,98839.77
2019-05-15T21:25:00.836Z,98838.02
2019-05-15T21:27:33.682Z,98838.83
2019-05-15T21:30:08.788Z,98838.62
2019-05-15T21:32:39.004Z,98836.48
2019-05-15T21:35:11.166Z,98840.55
2019-05-15T21:37:42.410Z,98832.90
2019-05-15T21:40:15.681Z,98834.81
2019-05-15T21:42:49.122Z,98839.30
2019-05-15T21:45:20.597Z,98824.35
2019-05-15T21:47:53.772Z,98824.59
2019-05-15T21:50:25.169Z,98824.78
2019-05-15T21:52:58.185Z,98831.72
2019-05-15T21:55:29.714Z,98819.48
2019-05-15T21:58:02.585Z,98832.54
2019-05-15T22:00:38.254Z,98830.09
2019-05-15T22:03:10.081Z,98826.27
2019-05-15T22:05:41.467Z,98820.50
2019-05-15T22:08:12.875Z,98822.01
2019-05-15T22:10:57.984Z,98821.27
2019-05-15T22:13:39.321Z,98824.35
2019-05-15T22:16:28.892Z,98826.70
2019-05-15T22:19:00.549Z,98821.12
2019-05-15T22:21:31.915Z,98826.11
2019-05-15T22:24:39.557Z,98816.16
2019-05-15T22:27:28.477Z,98814.05
2019-05-15T22:29:59.357Z,98810.52
2019-05-15T22:32:30.733Z,98811.33
2019-05-15T22:35:09.718Z,98813.36
2019-05-15T22:37:35.325Z,98810.52
2019-05-15T22:40:08.903Z,98812.85
2019-05-15T22:42:40.293Z,98814.48
2019-05-15T22:45:12.025Z,98807.04
2019-05-15T22:47:43.619Z,98800.48
2019-05-15T22:50:15.110Z,98801.38
2019-05-15T22:52:48.975Z,98799.19
2019-05-15T22:55:19.684Z,98796.22
2019-05-15T22:57:51.038Z,98786.73
2019-05-15T23:00:22.516Z,98789.28
2019-05-15T23:02:57.850Z,98799.53
2019-05-15T23:05:31.803Z,98793.14
2019-05-15T23:08:03.196Z,98790.99
2019-05-15T23:10:34.687Z,98787.91
2019-05-15T23:13:07.694Z,98789.03
2019-05-15T23:15:39.889Z,98785.55
2019-05-15T23:18:11.197Z,98780.77
2019-05-15T23:20:42.662Z,98783.92
2019-05-15T23:23:14.079Z,98779.27
2019-05-15T23:25:45.489Z,98781.14
2019-05-15T23:28:16.884Z,98779.51
2019-05-15T23:30:48.620Z,98777.36
2019-05-15T23:33:20.010Z,98773.39
2019-05-15T23:35:51.414Z,98769.98
2019-05-15T23:38:22.810Z,98767.50
2019-05-15T23:40:54.102Z,98769.28
2019-05-15T23:43:25.532Z,98767.34
2019-05-15T23:45:59.008Z,98766.25
2019-05-15T23:48:31.760Z,98760.88
2019-05-15T23:51:03.065Z,98758.52
2019-05-15T23:53:34.566Z,98759.55
2019-05-15T23:56:05.990Z,98757.20
2019-05-15T23:58:38.055Z,98751.35
